createdAt,value
2018-10-19T00:01:47.414Z,101194.23
2018-10-19T00:04:21.469Z,101197.47
2018-10-19T00:06:55.916Z,101197.47
2018-10-19T00:09:28.825Z,101194.41
2018-10-19T00:12:03.832Z,101195.59
2018-10-19T00:14:37.702Z,101195.59
2018-10-19T00:17:11.831Z,101194.75
2018-10-19T00:19:46.315Z,101183.86
2018-10-19T00:22:21.465Z,101183.86
2018-10-19T00:24:56.048Z,101191.70
2018-10-19T00:27:30.873Z,101186.59
2018-10-19T00:30:05.146Z,101193.39
2018-10-19T00:32:39.758Z,101186.26
2018-10-19T00:35:13.837Z,101194.41
2018-10-19T00:37:48.372Z,101195.12
2018-10-19T00:40:23.467Z,101195.12
2018-10-19T00:42:57.922Z,101193.05
2018-10-19T00:45:49.496Z,101189.48
2018-10-19T00:48:23.794Z,101185.89
2018-10-19T00:50:57.975Z,101177.91
2018-10-19T00:53:30.799Z,101177.91
2018-10-19T00:56:04.909Z,101167.36
2018-10-19T00:58:37.730Z,101167.36
2018-10-19T01:01:12.288Z,101173.83
2018-10-19T01:03:46.799Z,101172.47
2018-10-19T01:06:21.265Z,101163.56
2018-10-19T01:08:55.362Z,101163.56
2018-10-19T01:11:29.636Z,101169.56
2018-10-19T01:14:04.586Z,101176.69
2018-10-19T01:16:38.841Z,101176.18
2018-10-19T01:19:13.300Z,101174.68
2018-10-19T01:21:47.785Z,101174.68
2018-10-19T01:24:22.460Z,101177.91
2018-10-19T01:26:57.015Z,101177.91
2018-10-19T01:29:32.781Z,101186.38
2018-10-19T01:32:07.894Z,101185.50
2018-10-19T01:34:41.383Z,101185.50
2018-10-19T01:37:16.870Z,101186.53
2018-10-19T01:39:50.872Z,101177.98
2018-10-19T01:42:25.988Z,101177.98
2018-10-19T01:44:59.910Z,101185.83
2018-10-19T01:47:34.468Z,101187.89
2018-10-19T01:50:09.578Z,101182.45
2018-10-19T01:52:44.453Z,101188.22
2018-10-19T01:55:19.786Z,101187.38
2018-10-19T01:57:54.797Z,101184.27
2018-10-19T02:00:30.475Z,101196.05
2018-10-19T02:03:06.459Z,101196.05
2018-10-19T02:05:41.332Z,101195.70
2018-10-19T02:08:15.463Z,101197.41
2018-10-19T02:10:50.350Z,101196.55
2018-10-19T02:13:25.878Z,101203.34
2018-10-19T02:16:00.765Z,101205.89
2018-10-19T02:18:36.289Z,101204.85
2018-10-19T02:21:11.511Z,101204.85
2018-10-19T02:23:47.257Z,101204.85
2018-10-19T02:26:21.707Z,101203.86
2018-10-19T02:28:55.472Z,101205.22
2018-10-19T02:31:30.760Z,101208.27
2018-10-19T02:34:05.278Z,101203.30
2018-10-19T02:36:39.626Z,101203.30
2018-10-19T02:39:14.538Z,101206.72
2018-10-19T02:41:48.745Z,101205.70
2018-10-19T02:44:22.916Z,101206.58
2018-10-19T02:46:55.857Z,101213.01
2018-10-19T02:49:30.439Z,101215.72
2018-10-19T02:52:04.311Z,101215.72
2018-10-19T02:54:38.819Z,101209.44
2018-10-19T02:57:13.035Z,101201.74
2018-10-19T02:59:47.782Z,101201.74
2018-10-19T03:02:20.815Z,101216.41
2018-10-19T03:04:56.472Z,101216.75
2018-10-19T03:07:30.652Z,101216.75
2018-10-19T03:10:04.460Z,101217.40
2018-10-19T03:12:39.091Z,101215.05
2018-10-19T03:15:12.928Z,101216.55
2018-10-19T03:17:46.304Z,101214.34
2018-10-19T03:20:21.711Z,101219.78
2018-10-19T03:22:55.925Z,101221.14
2018-10-19T03:25:29.511Z,101216.36
2018-10-19T03:28:03.731Z,101218.05
2018-10-19T03:30:38.439Z,101221.45
2018-10-19T03:33:12.729Z,101215.14
2018-10-19T03:35:47.244Z,101211.06
2018-10-19T03:38:22.689Z,101212.94
2018-10-19T03:40:57.264Z,101213.44
2018-10-19T03:43:31.350Z,101210.53
2018-10-19T03:46:05.917Z,101220.89
2018-10-19T03:48:38.837Z,101213.58
2018-10-19T03:51:13.885Z,101197.18
2018-10-19T03:53:48.438Z,101194.94
2018-10-19T03:56:22.278Z,101194.94
2018-10-19T03:58:56.931Z,101210.67
2018-10-19T04:01:31.287Z,101220.70
2018-10-19T04:04:06.460Z,101223.08
2018-10-19T04:06:40.788Z,101221.72
2018-10-19T04:09:15.961Z,101216.54
2018-10-19T04:11:49.360Z,101216.54
2018-10-19T04:14:25.771Z,101225.23
2018-10-19T04:16:59.566Z,101228.12
2018-10-19T04:19:34.344Z,101226.39
2018-10-19T04:22:09.125Z,101228.97
2018-10-19T04:24:43.339Z,101230.46
2018-10-19T04:27:17.691Z,101229.28
2018-10-19T04:29:52.611Z,101234.34
2018-10-19T04:32:26.783Z,101236.21
2018-10-19T04:37:35.609Z,101232.14
2018-10-19T04:40:25.260Z,101227.86
2018-10-19T04:42:59.780Z,101236.52
2018-10-19T04:45:34.469Z,101245.70
2018-10-19T04:48:08.899Z,101245.70
2018-10-19T04:50:42.244Z,101239.01
2018-10-19T04:53:16.068Z,101238.39
2018-10-19T04:55:50.312Z,101240.60
2018-10-19T04:58:25.244Z,101236.19
2018-10-19T05:01:00.459Z,101242.98
2018-10-19T05:03:35.780Z,101250.25
2018-10-19T05:06:10.413Z,101253.75
2018-10-19T05:08:44.760Z,101253.75
2018-10-19T05:11:18.901Z,101255.48
2018-10-19T05:13:53.329Z,101257.83
2018-10-19T05:16:27.652Z,101257.83
2018-10-19T05:19:02.519Z,101262.53
2018-10-19T05:21:42.581Z,101259.41
2018-10-19T05:24:17.456Z,101259.55
2018-10-19T05:26:52.255Z,101266.84
2018-10-19T05:29:26.103Z,101260.91
2018-10-19T05:32:01.156Z,101266.60
2018-10-19T05:34:35.279Z,101264.88
2018-10-19T05:37:09.468Z,101262.27
2018-10-19T05:39:44.329Z,101263.48
2018-10-19T05:42:18.777Z,101269.91
2018-10-19T05:44:53.688Z,101267.56
2018-10-19T05:47:28.241Z,101267.56
2018-10-19T05:50:02.439Z,101276.89
2018-10-19T05:52:37.816Z,101278.97
2018-10-19T05:55:12.789Z,101276.89
2018-10-19T05:57:47.399Z,101273.03
2018-10-19T06:00:21.686Z,101273.03
2018-10-19T06:02:56.785Z,101278.73
2018-10-19T06:05:32.324Z,101290.24
2018-10-19T06:08:06.888Z,101290.24
2018-10-19T06:10:40.816Z,101289.44
2018-10-19T06:13:14.254Z,101289.44
2018-10-19T06:15:48.375Z,101306.14
2018-10-19T06:18:22.923Z,101309.97
2018-10-19T06:20:58.304Z,101306.44
2018-10-19T06:23:32.741Z,101307.86
2018-10-19T06:26:07.212Z,101305.63
2018-10-19T06:28:41.474Z,101297.07
2018-10-19T06:31:15.796Z,101306.95
2018-10-19T06:33:50.557Z,101308.34
2018-10-19T06:36:25.291Z,101308.34
2018-10-19T06:38:59.796Z,101323.05
2018-10-19T06:41:33.378Z,101321.25
2018-10-19T06:44:07.589Z,101325.02
2018-10-19T06:46:41.326Z,101318.22
2018-10-19T06:49:15.791Z,101326.51
2018-10-19T06:51:49.927Z,101322.23
2018-10-19T06:54:22.642Z,101322.23
2018-10-19T06:56:56.648Z,101333.09
2018-10-19T06:59:31.751Z,101334.83
2018-10-19T07:02:06.532Z,101336.59
2018-10-19T07:04:40.889Z,101331.84
2018-10-19T07:07:14.845Z,101330.34
2018-10-19T07:09:49.341Z,101341.35
2018-10-19T07:12:23.332Z,101341.35
2018-10-19T07:14:57.914Z,101351.06
2018-10-19T07:17:31.698Z,101346.52
2018-10-19T07:20:06.039Z,101347.70
2018-10-19T07:22:40.098Z,101347.94
2018-10-19T07:25:14.494Z,101351.36
2018-10-19T07:27:48.305Z,101354.08
2018-10-19T07:30:23.672Z,101361.59
2018-10-19T07:32:58.308Z,101359.52
2018-10-19T07:35:32.650Z,101357.65
2018-10-19T07:38:07.776Z,101363.63
2018-10-19T07:40:42.130Z,101359.92
2018-10-19T07:43:16.273Z,101363.48
2018-10-19T07:45:50.874Z,101365.36
2018-10-19T07:48:24.918Z,101368.38
2018-10-19T07:50:58.384Z,101369.57
2018-10-19T07:53:33.733Z,101367.50
2018-10-19T07:56:08.489Z,101365.59
2018-10-19T07:58:42.772Z,101369.33
2018-10-19T08:01:16.682Z,101380.44
2018-10-19T08:03:51.656Z,101375.72
2018-10-19T08:06:25.790Z,101372.35
2018-10-19T08:09:00.475Z,101382.06
2018-10-19T08:11:34.661Z,101382.06
2018-10-19T08:14:09.318Z,101380.34
2018-10-19T08:16:43.259Z,101381.05
2018-10-19T08:19:17.485Z,101383.02
2018-10-19T08:21:51.670Z,101385.87
2018-10-19T08:24:25.801Z,101383.36
2018-10-19T08:27:00.097Z,101395.22
2018-10-19T08:29:34.260Z,101395.22
2018-10-19T08:32:10.345Z,101392.70
2018-10-19T08:34:44.816Z,101388.96
2018-10-19T08:37:19.792Z,101392.39
2018-10-19T08:39:53.943Z,101381.96
2018-10-19T08:42:26.553Z,101381.96
2018-10-19T08:45:01.811Z,101399.33
2018-10-19T08:47:36.493Z,101405.00
2018-10-19T08:50:11.331Z,101405.00
2018-10-19T08:52:45.733Z,101404.66
2018-10-19T08:55:19.718Z,101400.04
2018-10-19T08:57:54.385Z,101399.02
2018-10-19T09:00:28.394Z,101405.48
2018-10-19T09:03:03.685Z,101400.77
2018-10-19T09:05:38.893Z,101402.63
2018-10-19T09:08:12.643Z,101401.21
2018-10-19T09:10:47.502Z,101406.51
2018-10-19T09:13:21.799Z,101401.03
2018-10-19T09:15:55.095Z,101398.62
2018-10-19T09:18:28.438Z,101397.38
2018-10-19T09:21:03.844Z,101404.02
2018-10-19T09:23:37.869Z,101392.28
2018-10-19T09:26:12.469Z,101412.03
2018-10-19T09:28:46.248Z,101412.03
2018-10-19T09:31:21.259Z,101411.14
2018-10-19T09:33:55.354Z,101405.83
2018-10-19T09:39:03.502Z,101406.23
2018-10-19T09:41:37.731Z,101406.36
2018-10-19T09:44:11.475Z,101409.88
2018-10-19T09:46:45.659Z,101408.29
2018-10-19T09:49:20.377Z,101396.63
2018-10-19T09:51:54.304Z,101398.58
2018-10-19T09:54:28.729Z,101400.02
2018-10-19T09:57:03.172Z,101404.03
2018-10-19T09:59:37.342Z,101403.47
2018-10-19T10:02:11.735Z,101407.87
2018-10-19T10:05:23.515Z,101406.31
2018-10-19T10:12:41.784Z,101399.06
2018-10-19T10:15:53.014Z,101400.23
2018-10-19T10:18:44.363Z,101400.23
2018-10-19T10:21:37.779Z,101403.09
2018-10-19T10:24:30.757Z,101400.95
2018-10-19T10:27:23.476Z,101400.95
2018-10-19T10:42:37.073Z,101398.20
2018-10-19T10:45:29.826Z,101401.59
2018-10-19T10:48:22.864Z,101396.84
2018-10-19T10:51:16.263Z,101388.66
2018-10-19T10:54:08.911Z,101388.66
2018-10-19T10:57:00.394Z,101399.42
2018-10-19T10:59:53.262Z,101392.25
2018-10-19T11:02:45.700Z,101390.72
2018-10-19T11:05:38.464Z,101386.64
2018-10-19T11:08:31.475Z,101389.36
2018-10-19T11:14:12.150Z,101374.77
2018-10-19T11:19:59.825Z,101376.30
2018-10-19T11:22:53.313Z,101378.42
2018-10-19T11:25:46.369Z,101378.42
2018-10-19T11:28:38.756Z,101372.13
2018-10-19T11:31:32.473Z,101367.88
2018-10-19T11:34:25.841Z,101367.88
2018-10-19T11:36:59.871Z,101356.33
2018-10-19T11:43:32.790Z,101363.89
2018-10-19T11:46:07.474Z,101353.95
2018-10-19T11:52:35.843Z,101366.58
2018-10-19T11:55:28.681Z,101354.66
2018-10-19T11:58:21.604Z,101354.66
2018-10-19T12:01:15.323Z,101359.07
2018-10-19T12:04:08.184Z,101356.73
2018-10-19T12:07:00.734Z,101358.42
2018-10-19T12:12:49.893Z,101352.47
2018-10-19T12:15:41.756Z,101347.88
2018-10-19T12:18:35.281Z,101341.28
2018-10-19T12:21:27.732Z,101333.97
2018-10-19T12:24:20.376Z,101341.14
2018-10-19T12:27:14.332Z,101339.78
2018-10-19T12:30:07.592Z,101346.06
2018-10-19T12:44:03.634Z,101335.38
2018-10-19T12:47:38.793Z,101331.62
2018-10-19T12:50:34.481Z,101331.76
2018-10-19T16:27:29.773Z,101287.09
2018-10-19T16:30:22.638Z,101290.08
2018-10-19T16:35:53.715Z,101291.53
2018-10-19T16:38:45.878Z,101292.16
2018-10-19T16:41:38.466Z,101293.31
2018-10-19T16:44:31.267Z,101283.80
2018-10-19T16:47:23.743Z,101279.38
2018-10-19T16:50:17.245Z,101286.52
2018-10-19T16:56:26.753Z,101275.82
2018-10-19T16:59:19.468Z,101276.08
2018-10-19T17:02:12.559Z,101276.08
2018-10-19T17:05:05.766Z,101285.27
2018-10-19T17:07:39.695Z,101292.58
2018-10-19T17:13:29.870Z,101297.90
2018-10-19T17:16:22.479Z,101299.69
2018-10-19T17:19:15.825Z,101299.69
2018-10-19T17:22:09.242Z,101297.05
2018-10-19T17:25:01.821Z,101297.05
2018-10-19T17:27:54.463Z,101298.33
2018-10-19T17:30:47.262Z,101298.33
2018-10-19T17:33:21.124Z,101305.97
2018-10-19T17:36:13.726Z,101311.03
2018-10-19T17:39:08.538Z,101304.23
2018-10-19T17:41:53.840Z,101308.63
2018-10-19T17:44:46.462Z,101304.15
2018-10-19T17:47:38.907Z,101304.15
2018-10-19T17:50:31.454Z,101315.08
2018-10-19T17:53:24.277Z,101315.08
2018-10-19T17:56:16.847Z,101320.66
2018-10-19T17:59:09.925Z,101318.55
2018-10-19T18:02:01.645Z,101318.55
2018-10-19T18:04:54.299Z,101323.34
2018-10-19T18:07:47.860Z,101332.34
2018-10-19T18:10:40.568Z,101329.63
2018-10-19T18:22:39.817Z,101333.60
2018-10-19T18:25:32.668Z,101352.01
2018-10-19T18:28:25.377Z,101352.01
2018-10-19T18:31:18.251Z,101351.50
2018-10-19T18:34:11.583Z,101356.80
2018-10-19T18:37:03.851Z,101352.42
2018-10-19T18:39:56.374Z,101351.91
2018-10-19T18:42:30.375Z,101367.36
2018-10-19T18:45:03.880Z,101367.36
2018-10-19T18:47:37.379Z,101365.36
2018-10-19T18:53:28.266Z,101366.41
2018-10-19T18:56:20.836Z,101372.59
2018-10-19T18:59:13.711Z,101381.39
2018-10-19T19:02:05.877Z,101381.39
2018-10-19T19:04:59.358Z,101366.61
2018-10-19T19:07:52.299Z,101366.61
2018-10-19T19:10:46.245Z,101386.52
2018-10-19T19:13:57.516Z,101389.23
2018-10-19T19:16:50.456Z,101388.39
2018-10-19T19:19:43.276Z,101384.11
2018-10-19T19:22:35.726Z,101389.03
2018-10-19T19:25:46.423Z,101394.47
2018-10-19T19:28:39.279Z,101393.63
2018-10-19T19:31:32.792Z,101394.13
2018-10-19T19:34:24.116Z,101398.41
2018-10-19T19:36:58.321Z,101398.41
2018-10-19T19:42:58.676Z,101392.16
2018-10-19T19:45:50.862Z,101391.17
2018-10-19T20:03:54.794Z,101400.14
2018-10-19T20:06:48.710Z,101395.88
2018-10-19T20:09:41.252Z,101395.88
2018-10-19T20:12:33.913Z,101413.01
2018-10-19T20:15:25.683Z,101414.88
2018-10-19T20:18:18.544Z,101420.82
2018-10-19T20:20:52.279Z,101424.02
2018-10-19T20:23:44.900Z,101420.82
2018-10-19T20:26:36.707Z,101420.31
2018-10-19T20:29:29.259Z,101419.30
2018-10-19T20:32:22.000Z,101423.53
2018-10-19T20:35:14.641Z,101407.16
2018-10-19T20:38:07.752Z,101407.16
2018-10-19T20:43:46.593Z,101417.16
2018-10-19T20:47:09.826Z,101419.94
2018-10-19T20:49:50.633Z,101418.23
2018-10-19T20:52:43.410Z,101421.26
2018-10-19T21:02:49.459Z,101420.45
2018-10-19T21:06:18.315Z,101420.45
2018-10-19T21:09:13.437Z,101420.03
2018-10-19T21:12:06.269Z,101422.23
2018-10-19T21:22:40.403Z,101415.66
2018-10-19T21:27:22.464Z,101411.88
2018-10-19T21:30:15.465Z,101411.12
2018-10-19T21:33:08.465Z,101403.31
2018-10-19T21:36:01.782Z,101408.92
2018-10-19T21:38:54.785Z,101404.67
2018-10-19T21:41:48.606Z,101397.75
2018-10-19T21:48:04.639Z,101396.59
2018-10-19T21:51:09.743Z,101396.59
2018-10-19T21:53:50.788Z,101406.61
2018-10-19T21:56:43.871Z,101385.96
2018-10-19T21:59:37.816Z,101395.67
2018-10-19T22:02:31.340Z,101388.47
2018-10-19T22:05:05.825Z,101388.47
2018-10-19T22:07:40.655Z,101397.47
2018-10-19T22:10:14.834Z,101397.47
2018-10-19T22:12:49.248Z,101402.77
2018-10-19T22:18:08.740Z,101416.37
2018-10-19T22:20:43.681Z,101415.24
2018-10-19T22:23:17.714Z,101421.69
2018-10-19T22:25:51.776Z,101423.69
2018-10-19T22:28:25.677Z,101409.47
2018-10-19T22:30:59.676Z,101409.47
2018-10-19T22:33:33.886Z,101415.91
2018-10-19T22:36:07.386Z,101417.27
2018-10-19T22:38:41.832Z,101408.92
2018-10-19T22:41:16.332Z,101426.06
2018-10-19T22:43:49.823Z,101426.06
2018-10-19T22:46:23.630Z,101417.50
2018-10-19T22:48:57.622Z,101417.50
2018-10-19T22:51:31.285Z,101411.98
2018-10-19T22:54:05.362Z,101420.26
2018-10-19T22:56:39.474Z,101426.58
2018-10-19T22:59:13.343Z,101429.08
2018-10-19T23:01:47.279Z,101423.66
2018-10-19T23:04:21.827Z,101427.05
2018-10-19T23:06:57.633Z,101413.56
2018-10-19T23:09:31.301Z,101413.56
2018-10-19T23:12:05.413Z,101421.92
2018-10-19T23:14:40.263Z,101415.98
2018-10-19T23:17:14.674Z,101415.50
2018-10-19T23:19:49.002Z,101421.61
2018-10-19T23:22:23.432Z,101422.84
2018-10-19T23:24:57.264Z,101423.69
2018-10-19T23:27:31.781Z,101413.84
2018-10-19T23:30:06.292Z,101409.47
2018-10-19T23:32:40.123Z,101409.47
2018-10-19T23:35:14.362Z,101406.20
2018-10-19T23:37:48.361Z,101416.69
2018-10-19T23:40:23.684Z,101418.22
2018-10-19T23:42:58.476Z,101423.66
2018-10-19T23:45:32.294Z,101426.06
2018-10-19T23:48:07.598Z,101436.42
2018-10-19T23:50:41.879Z,101440.63
2018-10-19T23:53:15.270Z,101444.23
2018-10-19T23:55:49.807Z,101433.37
2018-10-19T23:58:24.754Z,101426.50
